createdAt,value
2022-09-23T00:02:30.855Z,13.26
2022-09-23T00:07:33.249Z,13.08
2022-09-23T00:12:35.595Z,12.45
2022-09-23T00:17:38.328Z,12.51
2022-09-23T00:22:41.417Z,12.53
2022-09-23T00:27:43.808Z,12.35
2022-09-23T00:32:46.142Z,12.17
2022-09-23T00:37:48.583Z,12.30
2022-09-23T00:42:54.171Z,12.06
2022-09-23T00:48:02.089Z,12.20
2022-09-23T00:53:09.819Z,12.15
2022-09-23T00:58:17.800Z,12.44
2022-09-23T01:03:20.207Z,12.62
2022-09-23T01:08:23.909Z,12.63
2022-09-23T01:13:50.267Z,12.86
2022-09-23T01:19:19.480Z,12.78
2022-09-23T01:25:04.777Z,12.81
2022-09-23T01:30:28.895Z,12.84
2022-09-23T01:35:53.796Z,12.59
2022-09-23T01:41:09.940Z,12.53
2022-09-23T01:46:32.199Z,12.43
2022-09-23T01:51:42.716Z,11.94
2022-09-23T01:57:11.004Z,11.76
2022-09-23T02:02:28.359Z,11.65
2022-09-23T02:07:34.255Z,11.81
2022-09-23T02:12:40.998Z,11.44
2022-09-23T02:18:02.029Z,11.57
2022-09-23T02:23:07.961Z,11.10
2022-09-23T02:28:25.247Z,10.97
2022-09-23T02:34:04.121Z,11.54
2022-09-23T02:39:10.892Z,11.72
2022-09-23T02:44:16.826Z,11.67
2022-09-23T02:49:37.218Z,11.03
2022-09-23T02:54:40.714Z,11.17
2022-09-23T02:59:43.365Z,11.45
2022-09-23T03:05:03.947Z,11.33
2022-09-23T03:10:28.197Z,11.43
2022-09-23T03:15:46.803Z,11.60
2022-09-23T03:21:32.502Z,11.45
2022-09-23T03:26:37.617Z,11.33
2022-09-23T03:31:42.530Z,11.26
2022-09-23T03:37:03.399Z,11.18
2022-09-23T03:42:19.040Z,11.24
2022-09-23T03:47:22.822Z,11.19
2022-09-23T03:52:26.575Z,10.99
2022-09-23T03:57:28.993Z,10.85
2022-09-23T04:02:32.327Z,10.88
2022-09-23T04:07:34.860Z,11.08
2022-09-23T04:12:37.865Z,10.84
2022-09-23T04:17:40.240Z,10.67
2022-09-23T04:22:42.669Z,10.76
2022-09-23T04:27:45.041Z,10.91
2022-09-23T04:32:47.399Z,10.78
2022-09-23T04:37:49.818Z,10.75
2022-09-23T04:42:52.215Z,10.37
2022-09-23T04:47:55.152Z,10.71
2022-09-23T04:52:57.525Z,10.87
2022-09-23T04:57:59.891Z,10.85
2022-09-23T05:03:02.531Z,10.61
2022-09-23T05:08:04.923Z,10.13
2022-09-23T05:13:07.283Z,10.76
2022-09-23T05:18:09.725Z,10.64
2022-09-23T05:23:12.437Z,10.23
2022-09-23T05:28:20.143Z,9.82
2022-09-23T05:33:22.648Z,10.59
2022-09-23T05:38:25.414Z,10.21
2022-09-23T05:43:28.216Z,10.15
2022-09-23T05:48:35.112Z,9.78
2022-09-23T05:53:38.159Z,10.03
2022-09-23T05:58:41.023Z,10.20
2022-09-23T06:03:47.617Z,10.84
2022-09-23T06:08:50.026Z,11.30
2022-09-23T06:13:56.554Z,11.48
2022-09-23T06:19:05.120Z,11.67
2022-09-23T06:24:09.379Z,11.82
2022-09-23T06:29:12.619Z,11.98
2022-09-23T06:34:15.079Z,12.05
2022-09-23T06:39:17.600Z,11.99
2022-09-23T06:44:19.974Z,12.06
2022-09-23T06:49:22.739Z,12.37
2022-09-23T06:54:28.392Z,12.93
2022-09-23T06:59:30.816Z,12.69
2022-09-23T07:04:33.366Z,13.09
2022-09-23T07:09:35.857Z,13.40
2022-09-23T07:14:38.272Z,14.25
2022-09-23T07:19:40.733Z,14.76
2022-09-23T07:24:43.821Z,14.98
2022-09-23T07:29:51.189Z,15.23
2022-09-23T07:34:53.952Z,15.68
2022-09-23T07:39:56.430Z,15.71
2022-09-23T07:44:58.798Z,15.56
2022-09-23T07:50:01.352Z,15.43
2022-09-23T07:55:05.682Z,15.28
2022-09-23T08:00:09.306Z,15.27
2022-09-23T08:05:14.104Z,15.04
2022-09-23T08:10:21.134Z,15.07
2022-09-23T08:15:23.653Z,15.09
2022-09-23T08:20:47.278Z,15.26
2022-09-23T08:25:59.545Z,15.80
2022-09-23T08:31:02.427Z,16.37
2022-09-23T08:36:05.183Z,16.96
2022-09-23T08:41:32.918Z,17.65
2022-09-23T08:46:43.765Z,17.60
2022-09-23T08:51:48.506Z,17.99
2022-09-23T08:56:52.481Z,18.35
2022-09-23T09:02:06.742Z,17.33
2022-09-23T09:07:35.350Z,18.29
2022-09-23T09:12:46.069Z,18.19
2022-09-23T09:18:27.077Z,17.56
2022-09-23T09:23:39.257Z,17.33
2022-09-23T09:28:51.249Z,17.49
2022-09-23T09:34:20.347Z,17.32
2022-09-23T09:39:26.060Z,17.39
2022-09-23T09:44:31.920Z,17.77
2022-09-23T09:49:45.589Z,18.19
2022-09-23T09:54:49.678Z,18.42
2022-09-23T09:59:54.891Z,17.99
2022-09-23T10:05:07.379Z,18.35
2022-09-23T10:10:32.770Z,19.46
2022-09-23T10:15:45.450Z,19.02
2022-09-23T10:20:49.177Z,19.07
2022-09-23T10:26:05.615Z,19.29
2022-09-23T10:31:30.236Z,19.69
2022-09-23T10:36:33.828Z,20.57
2022-09-23T10:42:04.806Z,21.05
2022-09-23T10:47:22.312Z,21.57
2022-09-23T10:52:46.525Z,24.07
2022-09-23T10:58:17.545Z,28.39
2022-09-23T11:03:59.939Z,30.26
2022-09-23T11:09:05.398Z,31.41
2022-09-23T11:14:22.891Z,30.95
2022-09-23T11:19:25.284Z,30.83
2022-09-23T11:24:52.174Z,31.17
2022-09-23T11:30:16.696Z,31.81
2022-09-23T11:35:22.037Z,30.74
2022-09-23T11:40:32.290Z,27.47
2022-09-23T11:45:40.685Z,25.39
2022-09-23T11:50:57.090Z,25.03
2022-09-23T11:56:25.312Z,25.21
2022-09-23T12:01:45.405Z,23.88
2022-09-23T12:06:53.026Z,23.00
2022-09-23T12:12:08.544Z,23.16
2022-09-23T12:17:45.027Z,22.61
2022-09-23T12:22:58.348Z,23.34
2022-09-23T12:28:14.628Z,22.83
2022-09-23T12:33:28.104Z,22.56
2022-09-23T12:38:40.474Z,22.66
2022-09-23T12:43:54.945Z,24.20
2022-09-23T12:49:01.821Z,22.92
2022-09-23T12:54:04.796Z,22.58
2022-09-23T12:59:14.648Z,22.36
2022-09-23T13:04:53.946Z,22.22
2022-09-23T13:10:16.437Z,22.35
2022-09-23T13:15:39.221Z,22.69
2022-09-23T13:20:41.665Z,22.44
2022-09-23T13:25:44.907Z,22.23
2022-09-23T13:30:52.349Z,22.65
2022-09-23T13:36:01.217Z,23.43
2022-09-23T13:41:25.624Z,22.89
2022-09-23T13:46:35.173Z,23.61
2022-09-23T13:51:37.831Z,23.84
2022-09-23T13:56:49.481Z,24.29
2022-09-23T14:02:10.879Z,25.74
2022-09-23T14:07:16.005Z,25.81
2022-09-23T14:12:22.251Z,26.26
2022-09-23T14:17:24.461Z,25.06
2022-09-23T14:22:29.654Z,24.08
2022-09-23T14:27:36.228Z,24.01
2022-09-23T14:32:40.727Z,23.61
2022-09-23T14:38:06.361Z,22.79
2022-09-23T14:43:22.019Z,22.38
2022-09-23T14:48:34.059Z,22.03
2022-09-23T14:53:40.628Z,21.98
2022-09-23T14:58:58.916Z,21.84
2022-09-23T15:04:10.417Z,21.66
2022-09-23T15:09:23.817Z,21.45
2022-09-23T15:14:38.830Z,21.42
2022-09-23T15:19:42.319Z,21.25
2022-09-23T15:24:45.778Z,21.01
2022-09-23T15:29:48.646Z,20.91
2022-09-23T15:34:51.382Z,20.79
2022-09-23T15:39:53.786Z,20.75
2022-09-23T15:44:58.360Z,20.65
2022-09-23T15:50:00.733Z,20.54
2022-09-23T15:55:08.809Z,20.49
2022-09-23T16:00:13.386Z,20.41
2022-09-23T16:05:18.542Z,20.34
2022-09-23T16:10:22.700Z,20.29
2022-09-23T16:15:25.342Z,20.17
2022-09-23T16:20:30.145Z,20.12
2022-09-23T16:25:35.909Z,20.06
2022-09-23T16:30:38.325Z,19.96
2022-09-23T16:35:40.749Z,19.68
2022-09-23T16:40:47.025Z,19.56
2022-09-23T16:45:49.725Z,19.39
2022-09-23T16:50:54.058Z,19.25
2022-09-23T16:55:59.485Z,19.14
2022-09-23T17:01:20.950Z,18.92
2022-09-23T17:06:25.120Z,18.66
2022-09-23T17:11:33.439Z,18.32
2022-09-23T17:16:36.679Z,17.95
2022-09-23T17:21:39.388Z,17.83
2022-09-23T17:26:41.775Z,17.93
2022-09-23T17:31:44.516Z,17.96
2022-09-23T17:36:47.017Z,17.49
2022-09-23T17:41:49.376Z,17.34
2022-09-23T17:46:52.189Z,17.23
2022-09-23T17:51:55.849Z,17.08
2022-09-23T17:56:59.808Z,16.84
2022-09-23T18:02:02.583Z,17.10
2022-09-23T18:07:05.774Z,17.64
2022-09-23T18:12:08.161Z,17.47
2022-09-23T18:17:10.791Z,17.02
2022-09-23T18:22:13.209Z,16.68
2022-09-23T18:27:15.628Z,16.99
2022-09-23T18:32:18.051Z,17.32
2022-09-23T18:37:20.404Z,17.05
2022-09-23T18:42:23.772Z,16.69
2022-09-23T18:47:44.742Z,16.72
2022-09-23T18:52:48.214Z,17.00
2022-09-23T18:57:51.115Z,17.17
2022-09-23T19:02:53.852Z,16.97
2022-09-23T19:07:56.251Z,16.71
2022-09-23T19:12:58.705Z,16.36
2022-09-23T19:18:01.067Z,16.35
2022-09-23T19:23:03.622Z,16.44
2022-09-23T19:28:08.342Z,16.41
2022-09-23T19:33:11.021Z,16.71
2022-09-23T19:38:14.446Z,16.97
2022-09-23T19:43:16.979Z,16.57
2022-09-23T19:48:19.365Z,16.70
2022-09-23T19:53:24.856Z,16.60
2022-09-23T19:58:31.135Z,16.38
2022-09-23T20:03:34.397Z,16.43
2022-09-23T20:08:37.945Z,16.14
2022-09-23T20:13:42.627Z,15.81
2022-09-23T20:18:46.805Z,16.23
2022-09-23T20:23:49.507Z,16.08
2022-09-23T20:28:52.364Z,16.12
2022-09-23T20:33:58.327Z,16.11
2022-09-23T20:39:05.900Z,16.09
2022-09-23T20:44:14.152Z,16.03
2022-09-23T20:49:17.630Z,15.91
2022-09-23T20:54:20.250Z,15.88
2022-09-23T20:59:22.625Z,16.02
2022-09-23T21:04:25.447Z,15.75
2022-09-23T21:09:30.946Z,15.88
2022-09-23T21:14:33.553Z,16.06
2022-09-23T21:19:38.054Z,15.91
2022-09-23T21:25:16.129Z,16.02
2022-09-23T21:30:04.179Z,15.79
2022-09-23T21:35:06.882Z,15.82
2022-09-23T21:40:28.116Z,15.67
2022-09-23T21:45:31.715Z,15.75
2022-09-23T21:50:40.785Z,15.82
2022-09-23T21:55:43.152Z,15.77
2022-09-23T22:00:46.056Z,15.65
2022-09-23T22:05:48.620Z,15.74
2022-09-23T22:10:51.043Z,16.02
2022-09-23T22:15:53.563Z,16.29
2022-09-23T22:20:59.300Z,15.79
2022-09-23T22:26:03.372Z,15.46
2022-09-23T22:31:26.419Z,16.04
2022-09-23T22:36:28.828Z,16.21
2022-09-23T22:41:31.572Z,16.14
2022-09-23T22:46:34.723Z,16.36
2022-09-23T22:51:39.148Z,16.60
2022-09-23T22:56:41.564Z,16.24
2022-09-23T23:01:43.957Z,15.24
2022-09-23T23:06:46.836Z,15.40
2022-09-23T23:11:49.396Z,15.57
2022-09-23T23:16:52.262Z,15.86
2022-09-23T23:21:54.665Z,16.20
2022-09-23T23:26:57.081Z,16.24
2022-09-23T23:31:59.601Z,16.16
2022-09-23T23:37:01.974Z,16.13
2022-09-23T23:42:04.963Z,16.22
2022-09-23T23:47:07.358Z,15.56
2022-09-23T23:52:09.899Z,15.23
2022-09-23T23:57:12.354Z,15.70
